Time;durP1;ratioP1;P1;durP2;ratioP2;P2;SDS_P1;SDS_P2;PMS_P1;PMS_P2;Temp;Humidity;BMP_temperature;BMP_pressure;BME280_temperature;BME280_humidity;BME280_pressure;Samples;Min_cycle;Max_cycle;Signal;HPM_P1;HPM_P2
2024/01/22 00:00:28;;;;;;;5.77;2.50;;;6.50;99.90;;;;;;5074209;28;20040;-49
2024/01/22 00:02:53;;;;;;;7.37;2.80;;;6.60;99.90;;;;;;5073967;28;20128;-49
2024/01/22 00:05:19;;;;;;;5.77;2.17;;;6.60;99.90;;;;;;5074299;28;20051;-49
2024/01/22 00:07:45;;;;;;;8.33;2.80;;;6.60;99.90;;;;;;5074200;28;20571;-54
2024/01/22 00:10:10;;;;;;;4.90;2.17;;;6.60;99.90;;;;;;5074159;28;20053;-49
2024/01/22 00:12:37;;;;;;;6.37;2.67;;;6.60;99.90;;;;;;5074028;28;20045;-49
2024/01/22 00:15:03;;;;;;;7.28;2.88;;;6.70;99.90;;;;;;5074196;28;20052;-49
2024/01/22 00:17:28;;;;;;;9.30;2.92;;;6.60;99.90;;;;;;5072722;28;20519;-49
2024/01/22 00:19:54;;;;;;;7.47;2.50;;;6.70;99.90;;;;;;5074081;28;20083;-51
2024/01/22 00:22:20;;;;;;;6.50;2.80;;;6.70;99.90;;;;;;5073997;28;20045;-50
2024/01/22 00:24:45;;;;;;;8.70;2.93;;;6.70;99.90;;;;;;5072665;28;20060;-49
2024/01/22 00:27:11;;;;;;;9.17;2.40;;;6.70;99.90;;;;;;5073714;28;20492;-49
2024/01/22 00:29:37;;;;;;;5.50;2.40;;;6.80;99.90;;;;;;5073853;28;20041;-51
2024/01/22 00:32:03;;;;;;;5.70;2.50;;;6.80;99.90;;;;;;5073681;28;20133;-49
2024/01/22 00:34:29;;;;;;;7.22;2.35;;;6.80;99.90;;;;;;5073844;28;20044;-49
2024/01/22 00:36:54;;;;;;;6.13;2.33;;;6.80;99.90;;;;;;5072698;28;20048;-52
2024/01/22 00:39:21;;;;;;;7.50;2.40;;;6.80;99.90;;;;;;5073837;28;20049;-50
2024/01/22 00:41:47;;;;;;;6.07;2.42;;;6.80;99.90;;;;;;5073772;28;20045;-50
2024/01/22 00:44:12;;;;;;;5.77;2.70;;;6.90;99.90;;;;;;5073693;28;20044;-49
2024/01/22 00:46:38;;;;;;;8.00;2.40;;;6.90;99.90;;;;;;5073628;28;20051;-50
2024/01/22 00:49:04;;;;;;;6.80;2.50;;;6.90;99.90;;;;;;5073391;28;20140;-53
2024/01/22 00:51:30;;;;;;;5.97;3.35;;;7.00;99.90;;;;;;5072708;28;20049;-52
2024/01/22 00:53:57;;;;;;;4.82;2.00;;;7.00;99.90;;;;;;5073637;28;20495;-53
2024/01/22 00:56:23;;;;;;;7.03;3.17;;;7.10;99.90;;;;;;5073506;28;20049;-52
2024/01/22 00:58:49;;;;;;;6.78;2.42;;;7.10;99.90;;;;;;5073695;28;20055;-49
2024/01/22 01:01:14;;;;;;;6.13;2.00;;;7.10;99.90;;;;;;5073335;28;20123;-52
2024/01/22 01:03:40;;;;;;;5.93;2.57;;;7.20;99.90;;;;;;5072033;28;20036;-52
2024/01/22 01:06:06;;;;;;;6.30;2.53;;;7.20;99.90;;;;;;5073665;28;20052;-53
2024/01/22 01:08:32;;;;;;;7.68;2.75;;;7.20;99.90;;;;;;5072323;28;20172;-52
2024/01/22 01:10:57;;;;;;;5.37;2.60;;;7.10;99.90;;;;;;5073600;28;20483;-53
2024/01/22 01:13:23;;;;;;;4.40;2.13;;;7.10;99.90;;;;;;5073470;28;20381;-51
2024/01/22 01:15:49;;;;;;;5.10;2.10;;;7.10;99.90;;;;;;5073325;28;20044;-53
2024/01/22 01:18:14;;;;;;;7.03;2.80;;;7.10;99.90;;;;;;5073146;28;20048;-53
2024/01/22 01:20:40;;;;;;;8.47;2.40;;;7.20;99.90;;;;;;5073568;28;20059;-52
2024/01/22 01:23:06;;;;;;;6.37;2.73;;;7.20;99.90;;;;;;5073424;28;20041;-53
2024/01/22 01:25:33;;;;;;;5.53;2.23;;;7.20;99.90;;;;;;5088498;28;20480;-52
2024/01/22 01:27:59;;;;;;;5.78;2.40;;;7.20;99.90;;;;;;5073310;28;20040;-50
2024/01/22 01:30:24;;;;;;;5.70;2.33;;;7.30;99.90;;;;;;5072990;28;20102;-50
2024/01/22 01:32:50;;;;;;;5.83;2.70;;;7.30;99.90;;;;;;5072990;28;20048;-49
2024/01/22 01:35:16;;;;;;;7.20;2.27;;;7.20;99.90;;;;;;5073506;28;20389;-50
2024/01/22 01:37:42;;;;;;;5.57;2.50;;;7.20;99.90;;;;;;5073667;28;20435;-49
2024/01/22 01:40:08;;;;;;;5.93;2.27;;;7.30;99.90;;;;;;5075960;28;20518;-48
2024/01/22 01:42:33;;;;;;;6.82;2.50;;;7.30;99.90;;;;;;5077201;28;20392;-52
2024/01/22 01:44:59;;;;;;;4.83;2.27;;;7.30;99.90;;;;;;5076633;28;20043;-49
2024/01/22 01:47:25;;;;;;;4.23;2.00;;;7.30;99.90;;;;;;5076832;28;20414;-49
2024/01/22 01:49:50;;;;;;;5.50;2.10;;;7.40;99.90;;;;;;5076838;28;20502;-49
2024/01/22 01:52:18;;;;;;;4.97;2.03;;;7.40;99.90;;;;;;5076808;28;20047;-49
2024/01/22 01:54:46;;;;;;;4.85;2.20;;;7.40;99.90;;;;;;5075649;28;20052;-48
2024/01/22 01:57:12;;;;;;;6.05;2.50;;;7.50;99.90;;;;;;5076782;28;20133;-50
2024/01/22 01:59:43;;;;;;;6.60;2.75;;;7.50;99.90;;;;;;5075676;28;20067;-49
2024/01/22 02:02:09;;;;;;;5.47;2.50;;;7.60;99.90;;;;;;5077055;28;20059;-52
2024/01/22 02:04:36;;;;;;;6.23;2.43;;;7.70;99.90;;;;;;5076544;28;20048;-51
2024/01/22 02:07:02;;;;;;;7.97;2.50;;;7.70;99.90;;;;;;5076508;28;20048;-50
2024/01/22 02:09:44;;;;;;;;;;;7.80;99.90;;;;;;5076891;28;20052;-48
2024/01/22 02:12:10;;;;;;;6.60;2.63;;;7.80;99.90;;;;;;5076499;28;19920;-49
2024/01/22 02:14:36;;;;;;;5.40;2.30;;;7.90;99.90;;;;;;5076366;28;20051;-49
2024/01/22 02:17:01;;;;;;;4.77;1.97;;;8.00;99.90;;;;;;5075128;28;20084;-50
2024/01/22 02:19:27;;;;;;;6.00;2.63;;;8.00;99.90;;;;;;5076193;28;20094;-49
2024/01/22 02:21:53;;;;;;;4.73;2.00;;;8.00;99.90;;;;;;5076214;28;20131;-50
2024/01/22 02:24:18;;;;;;;5.37;2.47;;;8.00;99.90;;;;;;5076101;28;20060;-49
2024/01/22 02:26:44;;;;;;;4.40;1.87;;;8.00;99.90;;;;;;5075897;28;20041;-49
2024/01/22 02:29:09;;;;;;;4.70;2.20;;;8.00;99.90;;;;;;5074952;28;20045;-49
2024/01/22 02:31:35;;;;;;;5.63;2.83;;;8.00;99.90;;;;;;5076061;28;20086;-49
2024/01/22 02:34:01;;;;;;;7.30;2.33;;;8.00;99.90;;;;;;5076031;28;20081;-50
2024/01/22 02:36:26;;;;;;;5.90;2.37;;;8.00;99.90;;;;;;5075970;28;20127;-49
2024/01/22 02:38:52;;;;;;;4.10;2.00;;;8.10;99.90;;;;;;5075960;28;20095;-53
2024/01/22 02:41:18;;;;;;;8.33;2.07;;;8.10;99.90;;;;;;5075904;28;20044;-50
2024/01/22 02:43:43;;;;;;;5.17;1.90;;;8.10;99.90;;;;;;5075685;28;20045;-49
2024/01/22 02:46:09;;;;;;;4.60;1.83;;;8.10;99.90;;;;;;5075816;28;20074;-50
2024/01/22 02:48:34;;;;;;;4.53;2.00;;;8.20;99.90;;;;;;5075819;28;20131;-51
2024/01/22 02:51:00;;;;;;;3.53;1.57;;;8.20;99.90;;;;;;5075624;28;20145;-51
2024/01/22 02:53:26;;;;;;;5.17;1.93;;;8.30;99.90;;;;;;5075546;28;20036;-52
2024/01/22 02:55:51;;;;;;;5.50;1.97;;;8.30;99.90;;;;;;5075621;28;20047;-50
2024/01/22 02:58:17;;;;;;;3.83;1.80;;;8.40;99.90;;;;;;5075249;28;20048;-49
2024/01/22 03:00:42;;;;;;;7.40;2.00;;;8.40;99.90;;;;;;5057598;28;20400;-49
2024/01/22 03:03:08;;;;;;;4.60;2.00;;;8.40;99.90;;;;;;5075430;28;20480;-50
2024/01/22 03:05:34;;;;;;;6.07;2.00;;;8.40;99.90;;;;;;5075431;28;20041;-49
2024/01/22 03:08:00;;;;;;;3.77;1.60;;;8.40;99.90;;;;;;5075421;28;20052;-50
2024/01/22 03:10:26;;;;;;;5.80;1.95;;;8.40;99.90;;;;;;5075242;28;20055;-49
2024/01/22 03:12:52;;;;;;;5.18;1.95;;;8.40;99.90;;;;;;5075115;28;20081;-50
2024/01/22 03:15:17;;;;;;;4.45;1.88;;;8.40;99.90;;;;;;5075323;28;20476;-50
2024/01/22 03:17:43;;;;;;;5.57;1.53;;;8.50;99.90;;;;;;5075544;28;20084;-49
2024/01/22 03:20:09;;;;;;;7.83;1.93;;;8.50;99.90;;;;;;5075082;28;20051;-50
2024/01/22 03:22:35;;;;;;;5.40;1.70;;;8.40;99.90;;;;;;5074994;28;20048;-49
2024/01/22 03:25:01;;;;;;;4.60;2.10;;;8.40;99.90;;;;;;5075080;28;20055;-48
2024/01/22 03:27:27;;;;;;;4.40;1.80;;;8.40;99.90;;;;;;5074976;28;20048;-50
2024/01/22 03:29:52;;;;;;;6.85;2.20;;;8.40;99.90;;;;;;5075371;28;20052;-48
2024/01/22 03:32:18;;;;;;;5.53;1.77;;;8.40;99.90;;;;;;5073701;28;20045;-53
2024/01/22 03:34:44;;;;;;;6.53;2.17;;;8.40;99.90;;;;;;5074821;28;20040;-51
2024/01/22 03:37:10;;;;;;;5.47;2.03;;;8.50;99.90;;;;;;5073809;28;20048;-51
2024/01/22 03:39:35;;;;;;;3.93;1.60;;;8.40;99.90;;;;;;5074639;28;20045;-51
2024/01/22 03:42:02;;;;;;;4.80;2.23;;;8.50;99.90;;;;;;5074510;28;20051;-53
2024/01/22 03:44:27;;;;;;;5.30;2.08;;;8.40;99.90;;;;;;5074929;28;20503;-54
2024/01/22 03:46:53;;;;;;;4.40;2.00;;;8.50;99.90;;;;;;5074358;28;20052;-54
2024/01/22 03:49:19;;;;;;;3.10;1.60;;;8.50;99.90;;;;;;5074982;28;20125;-52
2024/01/22 03:51:44;;;;;;;4.50;1.90;;;8.50;99.90;;;;;;5074567;28;20480;-53
2024/01/22 03:54:10;;;;;;;4.03;1.75;;;8.50;99.90;;;;;;5074614;28;20123;-54
2024/01/22 03:56:37;;;;;;;3.80;1.63;;;8.50;99.90;;;;;;5074229;28;20471;-53
2024/01/22 03:59:03;;;;;;;3.90;1.50;;;8.50;99.90;;;;;;5074570;28;20062;-50
2024/01/22 04:01:28;;;;;;;4.73;1.50;;;8.50;99.90;;;;;;5072665;28;20127;-53
2024/01/22 04:03:54;;;;;;;4.57;1.50;;;8.40;99.90;;;;;;5074257;28;20106;-53
2024/01/22 04:06:20;;;;;;;4.93;1.47;;;8.50;99.90;;;;;;5074274;28;20049;-51
2024/01/22 04:08:45;;;;;;;6.73;1.90;;;8.50;99.90;;;;;;5074405;28;20403;-52
2024/01/22 04:11:11;;;;;;;4.53;1.60;;;8.50;99.90;;;;;;5074038;28;20396;-51
2024/01/22 04:13:40;;;;;;;4.80;1.30;;;8.50;99.90;;;;;;5074162;28;20044;-52
2024/01/22 04:16:06;;;;;;;2.47;1.10;;;8.50;99.90;;;;;;5074297;28;20095;-53
2024/01/22 04:18:31;;;;;;;3.83;1.47;;;8.60;99.90;;;;;;5074118;28;20072;-53
2024/01/22 04:20:57;;;;;;;3.80;1.23;;;8.60;99.90;;;;;;5073935;28;20506;-52
2024/01/22 04:23:23;;;;;;;3.57;1.30;;;8.60;99.90;;;;;;5073530;28;20045;-51
2024/01/22 04:25:48;;;;;;;3.47;1.57;;;8.60;99.90;;;;;;5073839;28;20095;-50
2024/01/22 04:28:14;;;;;;;2.57;1.07;;;8.60;99.90;;;;;;5073055;28;20044;-52
2024/01/22 04:30:40;;;;;;;3.10;1.20;;;8.60;99.90;;;;;;5074007;28;20048;-51
2024/01/22 04:33:06;;;;;;;2.95;1.40;;;8.70;99.90;;;;;;5073872;28;20282;-52
2024/01/22 04:35:31;;;;;;;3.20;1.30;;;8.70;99.90;;;;;;5073909;28;20399;-52
2024/01/22 04:37:57;;;;;;;2.93;1.13;;;8.70;99.90;;;;;;5073877;28;20510;-52
2024/01/22 04:40:23;;;;;;;2.67;1.03;;;8.80;99.90;;;;;;5073677;28;20139;-49
2024/01/22 04:42:48;;;;;;;3.67;1.07;;;8.80;99.90;;;;;;5073703;28;20051;-52
2024/01/22 04:45:14;;;;;;;2.77;1.10;;;8.90;99.90;;;;;;5073770;28;20045;-49
2024/01/22 04:47:40;;;;;;;3.57;1.17;;;8.90;99.90;;;;;;5072653;28;20044;-53
2024/01/22 04:50:06;;;;;;;1.87;0.80;;;8.90;99.90;;;;;;5073574;28;20048;-50
2024/01/22 04:52:32;;;;;;;3.17;1.05;;;8.90;99.90;;;;;;5073597;28;20499;-50
2024/01/22 04:54:58;;;;;;;2.33;1.10;;;8.90;99.90;;;;;;5073378;28;20052;-50
2024/01/22 04:57:23;;;;;;;2.33;0.87;;;9.00;99.90;;;;;;5074143;28;20553;-49
2024/01/22 04:59:49;;;;;;;3.20;1.20;;;9.00;99.90;;;;;;5072802;28;20123;-49
2024/01/22 05:02:16;;;;;;;2.83;1.10;;;9.00;99.90;;;;;;5073839;28;20056;-49
2024/01/22 05:04:42;;;;;;;3.58;1.30;;;9.10;99.90;;;;;;5073422;28;20048;-49
2024/01/22 05:07:08;;;;;;;3.63;1.23;;;9.10;99.90;;;;;;5073502;28;20044;-50
2024/01/22 05:09:33;;;;;;;3.40;1.40;;;9.20;99.90;;;;;;5073308;28;20408;-50
2024/01/22 05:11:59;;;;;;;2.63;0.93;;;9.30;99.90;;;;;;5073554;28;20116;-50
2024/01/22 05:14:25;;;;;;;2.57;1.13;;;9.30;99.90;;;;;;5075352;28;20089;-52
2024/01/22 05:16:50;;;;;;;3.07;1.20;;;9.30;99.90;;;;;;5077270;28;20190;-50
2024/01/22 05:19:16;;;;;;;4.43;1.50;;;9.40;99.90;;;;;;5077326;28;20056;-50
2024/01/22 05:21:42;;;;;;;2.72;1.00;;;9.40;99.90;;;;;;5077278;28;20044;-53
2024/01/22 05:24:08;;;;;;;1.97;1.00;;;9.50;99.90;;;;;;5077063;28;20158;-50
2024/01/22 05:26:33;;;;;;;3.05;1.02;;;9.50;99.90;;;;;;5077312;28;20061;-50
2024/01/22 05:28:59;;;;;;;1.40;0.70;;;9.50;99.90;;;;;;5077274;28;20106;-49
2024/01/22 05:31:25;;;;;;;2.37;1.03;;;9.50;99.90;;;;;;5077257;28;20052;-50
2024/01/22 05:33:50;;;;;;;2.70;1.10;;;9.50;99.90;;;;;;5077038;28;20132;-49
2024/01/22 05:36:16;;;;;;;3.73;1.07;;;9.60;99.90;;;;;;5076935;28;20127;-50
2024/01/22 05:38:42;;;;;;;2.33;0.90;;;9.60;99.90;;;;;;5076909;28;20041;-51
2024/01/22 05:41:07;;;;;;;2.40;1.00;;;9.60;99.90;;;;;;5076747;28;20094;-50
2024/01/22 05:43:33;;;;;;;2.13;0.87;;;9.70;99.90;;;;;;5076794;28;20048;-48
2024/01/22 05:45:59;;;;;;;2.53;1.17;;;9.80;99.90;;;;;;5059478;28;20117;-54
2024/01/22 05:48:24;;;;;;;2.27;0.90;;;9.90;99.90;;;;;;5076883;28;20051;-49
2024/01/22 05:50:50;;;;;;;2.90;0.97;;;9.90;99.90;;;;;;5076712;28;20132;-50
2024/01/22 05:53:16;;;;;;;2.43;1.00;;;10.00;99.90;;;;;;5076654;28;20051;-53
2024/01/22 05:55:42;;;;;;;3.27;0.93;;;10.10;99.90;;;;;;5077013;28;20040;-51
2024/01/22 05:58:07;;;;;;;4.70;1.17;;;10.20;99.90;;;;;;5076684;28;20480;-53
2024/01/22 06:00:33;;;;;;;1.53;0.80;;;10.20;99.90;;;;;;5076673;28;20044;-52
2024/01/22 06:02:59;;;;;;;1.60;0.80;;;10.30;99.90;;;;;;5076616;28;20381;-52
2024/01/22 06:05:25;;;;;;;2.20;0.70;;;10.40;99.90;;;;;;5075465;28;20045;-51
2024/01/22 06:07:50;;;;;;;2.13;0.80;;;10.40;99.90;;;;;;5076477;28;20124;-51
2024/01/22 06:10:16;;;;;;;5.37;0.80;;;10.40;99.90;;;;;;5076517;28;20048;-51
2024/01/22 06:12:42;;;;;;;4.43;0.90;;;10.50;99.90;;;;;;5075813;28;20494;-51
2024/01/22 06:15:08;;;;;;;5.77;1.30;;;10.50;99.90;;;;;;5076450;28;20048;-50
2024/01/22 06:17:34;;;;;;;4.15;0.88;;;10.50;99.90;;;;;;5076413;28;20048;-52
2024/01/22 06:20:00;;;;;;;2.60;0.83;;;10.50;99.90;;;;;;5076472;28;20504;-54
2024/01/22 06:22:26;;;;;;;1.50;0.57;;;10.50;99.90;;;;;;5076144;28;20044;-49
2024/01/22 06:24:52;;;;;;;4.32;0.90;;;10.50;99.90;;;;;;5075616;28;20092;-50
2024/01/22 06:27:18;;;;;;;3.20;0.70;;;10.50;99.90;;;;;;5076216;28;20094;-51
2024/01/22 06:29:44;;;;;;;3.27;1.07;;;10.50;99.90;;;;;;5076317;28;20064;-53
2024/01/22 06:32:10;;;;;;;5.67;0.90;;;10.50;99.90;;;;;;5076080;28;20048;-54
2024/01/22 06:34:36;;;;;;;2.80;0.70;;;10.50;99.90;;;;;;5075799;28;20480;-52
2024/01/22 06:37:02;;;;;;;4.00;0.80;;;10.50;99.90;;;;;;5075880;28;20048;-52
2024/01/22 06:39:28;;;;;;;5.20;1.13;;;10.50;99.90;;;;;;5075667;28;20495;-50
2024/01/22 06:41:54;;;;;;;1.27;0.73;;;10.50;99.90;;;;;;5075953;28;20072;-52
2024/01/22 06:44:20;;;;;;;2.40;0.60;;;10.50;99.90;;;;;;5075715;28;20475;-53
2024/01/22 06:46:45;;;;;;;4.43;0.73;;;10.50;99.90;;;;;;5075687;28;20052;-50
2024/01/22 06:49:11;;;;;;;2.23;0.80;;;10.50;99.90;;;;;;5075654;28;20048;-53
2024/01/22 06:51:37;;;;;;;4.10;0.70;;;10.50;99.90;;;;;;5075506;28;20044;-53
2024/01/22 06:54:02;;;;;;;5.77;0.83;;;10.50;99.90;;;;;;5075437;28;20080;-50
2024/01/22 06:56:28;;;;;;;1.97;0.60;;;10.50;99.90;;;;;;5075628;28;20045;-49
2024/01/22 06:58:54;;;;;;;2.87;0.80;;;10.50;99.90;;;;;;5075580;28;20368;-54
2024/01/22 07:01:20;;;;;;;6.90;1.02;;;10.50;99.90;;;;;;5075436;28;20492;-54
2024/01/22 07:03:46;;;;;;;4.05;1.20;;;10.50;99.90;;;;;;5075210;28;20515;-53
2024/01/22 07:06:12;;;;;;;2.40;0.70;;;10.50;99.90;;;;;;5075270;28;20053;-49
2024/01/22 07:08:38;;;;;;;5.72;1.08;;;10.50;99.90;;;;;;5075241;28;20722;-50
2024/01/22 07:11:05;;;;;;;5.97;1.08;;;10.50;99.90;;;;;;5075332;28;20127;-50
2024/01/22 07:13:32;;;;;;;3.50;0.73;;;10.50;99.90;;;;;;5075246;28;20047;-49
2024/01/22 07:15:58;;;;;;;7.25;1.38;;;10.50;99.90;;;;;;5075468;28;20057;-50
2024/01/22 07:18:24;;;;;;;4.30;0.98;;;10.50;99.90;;;;;;5075033;28;20056;-53
2024/01/22 07:20:52;;;;;;;4.70;1.10;;;10.40;99.90;;;;;;5075157;28;20098;-53
2024/01/22 07:23:18;;;;;;;9.70;1.85;;;10.50;99.90;;;;;;5075006;28;20075;-52
2024/01/22 07:25:43;;;;;;;7.33;1.60;;;10.50;99.90;;;;;;5075163;28;20491;-54
2024/01/22 07:28:10;;;;;;;6.90;1.60;;;10.50;99.90;;;;;;5074921;28;20049;-51
2024/01/22 07:30:37;;;;;;;9.07;1.85;;;10.50;99.90;;;;;;5074969;28;20098;-51
2024/01/22 07:33:03;;;;;;;6.53;1.83;;;10.40;99.90;;;;;;5074085;28;20095;-53
2024/01/22 07:35:29;;;;;;;7.18;1.50;;;10.40;99.90;;;;;;5074830;28;20087;-54
2024/01/22 07:37:55;;;;;;;10.23;2.25;;;10.40;99.90;;;;;;5073697;28;20136;-55
2024/01/22 07:40:21;;;;;;;11.52;1.90;;;10.50;99.90;;;;;;5074710;28;20472;-55
2024/01/22 07:42:47;;;;;;;8.27;1.60;;;10.50;99.90;;;;;;5074625;28;20036;-50
2024/01/22 07:45:14;;;;;;;14.57;1.65;;;10.50;99.90;;;;;;5073280;28;20097;-54
2024/01/22 07:47:40;;;;;;;13.20;1.95;;;10.40;99.90;;;;;;5074424;28;20044;-52
2024/01/22 07:50:09;;;;;;;13.25;2.05;;;10.50;99.90;;;;;;5073270;28;20514;-50
2024/01/22 07:52:35;;;;;;;13.90;2.35;;;10.40;99.90;;;;;;5074457;28;20052;-49
2024/01/22 07:55:01;;;;;;;13.73;2.13;;;10.40;99.90;;;;;;5074844;28;20404;-48
2024/01/22 07:57:28;;;;;;;8.68;1.45;;;10.30;99.90;;;;;;5074468;28;20055;-48
2024/01/22 07:59:54;;;;;;;14.70;1.60;;;10.30;99.90;;;;;;5073248;28;20060;-47
2024/01/22 08:02:20;;;;;;;6.40;1.35;;;10.10;99.90;;;;;;5074314;28;20037;-47
2024/01/22 08:04:45;;;;;;;6.68;0.90;;;10.10;99.90;;;;;;5074077;28;20506;-49
2024/01/22 08:07:11;;;;;;;6.43;0.93;;;10.00;99.90;;;;;;5073995;28;20044;-49
2024/01/22 08:09:38;;;;;;;7.00;1.00;;;10.00;99.90;;;;;;5074359;28;20433;-48
2024/01/22 08:12:04;;;;;;;7.50;1.05;;;9.90;99.90;;;;;;5073467;28;20366;-49
2024/01/22 08:14:33;;;;;;;2.97;0.63;;;9.90;99.90;;;;;;5073260;28;20449;-48
2024/01/22 08:17:01;;;;;;;5.30;0.88;;;9.80;99.90;;;;;;5074182;28;20044;-49
2024/01/22 08:19:27;;;;;;;4.95;0.80;;;9.80;99.90;;;;;;5073916;28;20044;-49
2024/01/22 08:21:53;;;;;;;3.67;0.50;;;9.80;99.90;;;;;;5074113;28;20158;-48
2024/01/22 08:24:19;;;;;;;6.03;0.80;;;9.80;99.90;;;;;;5073850;28;20467;-48
2024/01/22 08:26:45;;;;;;;5.95;0.88;;;9.70;99.90;;;;;;5074266;28;20314;-52
2024/01/22 08:29:11;;;;;;;2.50;0.63;;;9.70;99.90;;;;;;5074025;28;20068;-50
2024/01/22 08:31:38;;;;;;;4.20;0.77;;;9.70;99.90;;;;;;5074055;28;20507;-48
2024/01/22 08:34:04;;;;;;;6.82;0.80;;;9.70;99.90;;;;;;5073743;28;20109;-49
2024/01/22 08:36:29;;;;;;;4.17;1.00;;;9.70;99.90;;;;;;5072715;28;20555;-48
2024/01/22 08:38:55;;;;;;;7.03;1.10;;;9.70;99.90;;;;;;5072641;28;20056;-48
2024/01/22 08:41:27;;;;;;;6.73;0.80;;;9.70;99.90;;;;;;5074022;28;20420;-49
2024/01/22 08:43:54;;;;;;;9.25;1.77;;;9.70;99.90;;;;;;5073751;28;20492;-48
2024/01/22 08:46:20;;;;;;;8.25;1.40;;;9.70;99.90;;;;;;5073725;28;20041;-49
2024/01/22 08:48:46;;;;;;;12.63;2.47;;;9.70;99.90;;;;;;5073486;28;20048;-50
2024/01/22 08:51:12;;;;;;;15.40;2.28;;;9.70;99.90;;;;;;5073746;28;20689;-49
2024/01/22 08:53:37;;;;;;;13.40;2.27;;;9.60;99.90;;;;;;5072716;28;20053;-48
2024/01/22 08:56:03;;;;;;;12.13;2.73;;;9.60;99.90;;;;;;5073586;28;20127;-48
2024/01/22 08:58:29;;;;;;;14.73;2.17;;;9.60;99.90;;;;;;5073642;28;20052;-51
2024/01/22 09:00:55;;;;;;;14.93;2.13;;;9.60;99.90;;;;;;5073509;28;20044;-49
2024/01/22 09:03:24;;;;;;;13.60;2.33;;;9.60;99.90;;;;;;5073182;28;20040;-49
2024/01/22 09:05:50;;;;;;;21.30;2.38;;;9.60;99.90;;;;;;5073759;28;20391;-49
2024/01/22 09:08:15;;;;;;;14.88;2.55;;;9.60;99.90;;;;;;5073522;28;20052;-49
2024/01/22 09:10:41;;;;;;;14.30;3.27;;;9.50;99.90;;;;;;5072215;28;20084;-50
2024/01/22 09:13:08;;;;;;;16.43;2.90;;;9.50;99.90;;;;;;5073329;28;20059;-49
2024/01/22 09:15:34;;;;;;;20.83;2.75;;;9.50;99.90;;;;;;5073227;28;20123;-48
2024/01/22 09:17:59;;;;;;;14.00;3.07;;;9.50;99.90;;;;;;5073475;28;20091;-48
2024/01/22 09:20:25;;;;;;;21.27;5.33;;;9.50;99.90;;;;;;5073463;28;20048;-49
2024/01/22 09:22:51;;;;;;;15.80;2.93;;;9.50;99.90;;;;;;5073375;28;20392;-49
2024/01/22 09:25:19;;;;;;;24.17;3.40;;;9.50;99.90;;;;;;5073071;28;20778;-49
2024/01/22 09:27:47;;;;;;;23.52;3.15;;;9.50;99.90;;;;;;5073285;28;20049;-48
2024/01/22 09:30:13;;;;;;;19.25;3.60;;;9.60;99.90;;;;;;5073220;28;20048;-48
2024/01/22 09:32:39;;;;;;;14.55;2.85;;;9.60;99.90;;;;;;5073073;28;20055;-50
2024/01/22 09:35:05;;;;;;;19.30;3.53;;;9.50;99.90;;;;;;5073679;28;20127;-48
2024/01/22 09:37:31;;;;;;;24.92;4.32;;;9.60;99.90;;;;;;5073271;28;20040;-48
2024/01/22 09:39:57;;;;;;;20.40;3.63;;;9.60;99.90;;;;;;5073311;28;20088;-49
2024/01/22 09:42:26;;;;;;;22.93;3.63;;;9.60;99.90;;;;;;5072998;28;20074;-48
2024/01/22 09:44:53;;;;;;;18.45;4.18;;;9.60;99.90;;;;;;5072901;28;20040;-49
2024/01/22 09:47:19;;;;;;;;;;;9.60;99.90;;;;;;5073686;28;20111;-49
2024/01/22 09:49:47;;;;;;;20.73;4.10;;;9.60;99.90;;;;;;5073068;28;20466;-50
2024/01/22 09:52:16;;;;;;;31.92;3.80;;;9.60;99.90;;;;;;5073096;28;20094;-49
2024/01/22 09:54:43;;;;;;;21.02;3.25;;;9.60;99.90;;;;;;5073026;28;20037;-50
2024/01/22 09:57:16;;;;;;;21.25;2.88;;;9.70;99.90;;;;;;5072920;28;20389;-49
2024/01/22 09:59:43;;;;;;;20.98;3.30;;;9.70;99.90;;;;;;5073383;28;20484;-51
2024/01/22 10:02:10;;;;;;;;;;;9.60;99.90;;;;;;5077803;28;20048;-49
2024/01/22 10:04:36;;;;;;;15.63;2.65;;;9.60;99.90;;;;;;5076537;28;19926;-52
2024/01/22 10:07:04;;;;;;;16.77;2.70;;;9.60;99.90;;;;;;5076621;28;20080;-49
2024/01/22 10:09:29;;;;;;;15.15;2.95;;;9.60;99.90;;;;;;5076357;28;20052;-49
2024/01/22 10:11:55;;;;;;;18.77;2.40;;;9.70;99.90;;;;;;5076394;28;20463;-50
2024/01/22 10:14:37;;;;;;;18.87;2.37;;;9.70;99.90;;;;;;5076407;28;20076;-53
2024/01/22 10:17:20;;;;;;;19.17;3.17;;;9.70;99.90;;;;;;5076402;28;20127;-49
2024/01/22 10:19:49;;;;;;;15.77;2.80;;;9.80;99.90;;;;;;5075259;28;20118;-49
2024/01/22 10:22:19;;;;;;;11.35;2.40;;;9.80;99.90;;;;;;5076295;28;20054;-49
2024/01/22 10:24:58;;;;;;;14.35;2.83;;;9.80;99.90;;;;;;5075690;28;20411;-50
2024/01/22 10:27:23;;;;;;;18.17;3.22;;;9.80;99.90;;;;;;5076258;28;20060;-50
2024/01/22 10:29:49;;;;;;;20.27;3.03;;;9.80;99.90;;;;;;5076466;28;20090;-49
2024/01/22 10:32:24;;;;;;;13.87;2.50;;;9.80;99.90;;;;;;5076015;28;20048;-51
2024/01/22 10:34:53;;;;;;;17.98;3.00;;;9.90;99.90;;;;;;5076048;28;20119;-53
2024/01/22 10:37:19;;;;;;;14.32;2.15;;;9.80;99.90;;;;;;5075874;28;20048;-51
2024/01/22 10:39:48;;;;;;;19.65;3.38;;;9.90;99.90;;;;;;5075949;28;20055;-51
2024/01/22 10:42:15;;;;;;;14.20;2.33;;;9.80;99.90;;;;;;5076109;28;20388;-50
2024/01/22 10:44:45;;;;;;;13.00;1.83;;;9.90;99.90;;;;;;5075821;28;20036;-50
2024/01/22 10:47:15;;;;;;;13.55;2.45;;;9.90;99.90;;;;;;5074948;28;20048;-49
2024/01/22 10:49:45;;;;;;;13.05;1.83;;;9.90;99.90;;;;;;5075657;28;20385;-49
2024/01/22 10:52:11;;;;;;;11.43;2.03;;;9.90;99.90;;;;;;5075755;28;20059;-50
2024/01/22 10:54:37;;;;;;;13.90;2.03;;;9.90;99.90;;;;;;5074499;28;20431;-51
2024/01/22 10:57:09;;;;;;;14.30;2.33;;;9.90;99.90;;;;;;5075618;28;20519;-50
2024/01/22 10:59:38;;;;;;;10.52;2.00;;;9.90;99.90;;;;;;5075561;28;20060;-52
2024/01/22 11:02:12;;;;;;;10.15;1.20;;;9.90;99.90;;;;;;5075485;28;20430;-50
2024/01/22 11:04:45;;;;;;;8.50;1.45;;;9.90;99.90;;;;;;5075670;28;20104;-51
2024/01/22 11:07:12;;;;;;;12.85;1.80;;;10.00;99.90;;;;;;5075405;28;20048;-53
2024/01/22 11:09:38;;;;;;;;;;;9.90;99.90;;;;;;5075737;28;20095;-51
2024/01/22 11:12:11;;;;;;;12.60;1.55;;;10.00;99.90;;;;;;5074220;28;19925;-51
2024/01/22 11:14:41;;;;;;;9.18;1.90;;;10.00;99.90;;;;;;5075202;28;20056;-51
2024/01/22 11:17:09;;;;;;;13.13;2.55;;;10.00;99.90;;;;;;5075097;28;20404;-51
2024/01/22 11:19:35;;;;;;;12.68;1.50;;;10.00;99.90;;;;;;5075164;28;20052;-50
2024/01/22 11:22:12;;;;;;;6.45;1.50;;;9.90;99.90;;;;;;5075214;28;20052;-51
2024/01/22 11:24:39;;;;;;;12.77;2.13;;;9.90;99.90;;;;;;5074692;28;20500;-50
2024/01/22 11:27:06;;;;;;;19.67;2.25;;;9.80;99.90;;;;;;5074916;28;20132;-52
2024/01/22 11:29:33;;;;;;;10.07;1.85;;;9.80;99.90;;;;;;5074888;28;20048;-53
2024/01/22 11:32:26;;;;;;;13.43;1.60;;;9.80;99.90;;;;;;5074973;28;20053;-53
2024/01/22 11:34:55;;;;;;;10.73;2.05;;;9.90;99.90;;;;;;5071905;28;20052;-50
2024/01/22 11:37:36;;;;;;;13.15;1.92;;;9.90;99.90;;;;;;5074726;28;20067;-50
2024/01/22 11:40:11;;;;;;;10.45;1.58;;;10.00;99.90;;;;;;5074748;28;20052;-54
2024/01/22 11:42:36;;;;;;;12.25;2.92;;;10.00;99.90;;;;;;5074745;28;20052;-50
2024/01/22 11:45:10;;;;;;;10.37;1.27;;;10.00;99.90;;;;;;5074692;28;20048;-51
2024/01/22 11:47:38;;;;;;;10.00;1.55;;;10.10;99.90;;;;;;5074425;28;20278;-50
2024/01/22 11:50:06;;;;;;;8.70;1.55;;;10.10;99.90;;;;;;5074468;28;20060;-54
2024/01/22 11:52:33;;;;;;;14.25;2.03;;;10.10;99.90;;;;;;5074291;28;20518;-51
2024/01/22 11:55:04;;;;;;;10.50;1.40;;;10.10;99.90;;;;;;5074570;28;20044;-53
2024/01/22 11:57:32;;;;;;;10.40;1.70;;;10.20;99.90;;;;;;5074453;28;20076;-50
2024/01/22 12:00:09;;;;;;;12.88;2.08;;;10.10;99.90;;;;;;5074331;28;20480;-50
2024/01/22 12:02:39;;;;;;;12.05;1.73;;;10.10;99.90;;;;;;5074129;28;20051;-52
2024/01/22 12:05:17;;;;;;;8.48;1.25;;;10.20;99.90;;;;;;5074110;28;20040;-50
2024/01/22 12:07:47;;;;;;;22.08;2.55;;;10.20;99.90;;;;;;5074672;28;20060;-50
2024/01/22 12:10:28;;;;;;;12.07;2.10;;;10.20;99.90;;;;;;5074282;28;20408;-51
2024/01/22 12:13:08;;;;;;;9.32;1.27;;;10.10;99.90;;;;;;5074107;28;20048;-52
2024/01/22 12:15:33;;;;;;;13.55;1.80;;;10.20;99.90;;;;;;5074010;28;20500;-51
2024/01/22 12:18:02;;;;;;;11.27;1.90;;;10.10;99.90;;;;;;5074037;28;20052;-54
2024/01/22 12:20:30;;;;;;;9.75;1.85;;;10.10;99.90;;;;;;5074090;28;20071;-50
2024/01/22 12:23:03;;;;;;;11.25;1.40;;;10.10;99.90;;;;;;5073478;28;20052;-50
2024/01/22 12:25:37;;;;;;;10.18;1.20;;;10.10;99.90;;;;;;5073877;28;20064;-51
2024/01/22 12:28:10;;;;;;;8.82;1.63;;;10.10;99.90;;;;;;5074032;28;20495;-53
2024/01/22 12:30:37;;;;;;;9.95;1.90;;;10.10;99.90;;;;;;5072910;28;20132;-53
2024/01/22 12:33:03;;;;;;;11.57;1.55;;;10.10;99.90;;;;;;5074081;28;20407;-50
2024/01/22 12:35:28;;;;;;;12.25;1.83;;;10.10;99.90;;;;;;5073802;28;20153;-54
2024/01/22 12:37:54;;;;;;;10.87;1.43;;;10.10;99.90;;;;;;5073783;28;20072;-54
2024/01/22 12:40:20;;;;;;;11.27;1.47;;;10.10;99.90;;;;;;5073688;28;20503;-53
2024/01/22 12:42:52;;;;;;;14.55;1.77;;;10.10;99.90;;;;;;5072599;28;20045;-54
2024/01/22 12:45:20;;;;;;;9.05;1.38;;;10.10;99.90;;;;;;5073568;28;20114;-55
2024/01/22 12:47:46;;;;;;;9.07;1.80;;;10.10;99.90;;;;;;5074018;28;20468;-54
2024/01/22 12:50:14;;;;;;;10.43;1.08;;;10.10;99.90;;;;;;5072742;28;20041;-54